<?xml version="1.0" encoding="UTF-8" standalone="no" ?>
<gpx xmlns="http://www.topografix.com/GPX/1/1" xmlns:xsi="http://www.w3.org/2001/XMLSchema-instance" xsi:schemaLocation="http://www.topografix.com/GPX/1/1 http://www.topografix.com/GPX/1/1/gpx.xsd" version="1.1" creator="VisuGPX - https://www.visugpx.com">
  <metadata>
    <name>st jean brevelay carado</name>
    <desc><![CDATA[circuit du carado ]]></desc>
  </metadata>
  <trk>
    <name><![CDATA[Circuit le carado St Jean Brév 2013]]></name>
    <trkseg>
      <trkpt lat="47.84576" lon="-2.71844">
        <ele>106.5</ele>
        <time>2010-10-06T15:57:34Z</time>
      </trkpt>
      <trkpt lat="47.84579" lon="-2.71839">
        <ele>106.6</ele>
        <time>2010-10-06T15:57:35Z</time>
      </trkpt>
      <trkpt lat="47.84613" lon="-2.71644">
        <ele>105.7</ele>
        <time>2010-10-06T15:57:50Z</time>
      </trkpt>
      <trkpt lat="47.84618" lon="-2.71649">
        <ele>105.5</ele>
        <time>2010-10-06T15:57:50Z</time>
      </trkpt>
      <trkpt lat="47.84682" lon="-2.71692">
        <ele>103.2</ele>
        <time>2010-10-06T15:57:58Z</time>
      </trkpt>
      <trkpt lat="47.84684" lon="-2.71694">
        <ele>103.2</ele>
        <time>2010-10-06T15:57:58Z</time>
      </trkpt>
      <trkpt lat="47.84654" lon="-2.71494">
        <ele>100.8</ele>
        <time>2010-10-06T15:58:14Z</time>
      </trkpt>
      <trkpt lat="47.84654" lon="-2.71496">
        <ele>100.8</ele>
        <time>2010-10-06T15:58:14Z</time>
      </trkpt>
      <trkpt lat="47.84638" lon="-2.71092">
        <ele>105.9</ele>
        <time>2010-10-06T15:58:44Z</time>
      </trkpt>
      <trkpt lat="47.84636" lon="-2.71091">
        <ele>106</ele>
        <time>2010-10-06T15:58:44Z</time>
      </trkpt>
      <trkpt lat="47.8463" lon="-2.70832">
        <ele>114.2</ele>
        <time>2010-10-06T15:59:03Z</time>
      </trkpt>
      <trkpt lat="47.84744" lon="-2.70828">
        <ele>111.4</ele>
        <time>2010-10-06T15:59:16Z</time>
      </trkpt>
      <trkpt lat="47.84789" lon="-2.70326">
        <ele>93</ele>
        <time>2010-10-06T15:59:54Z</time>
      </trkpt>
      <trkpt lat="47.84739" lon="-2.70287">
        <ele>94.1</ele>
        <time>2010-10-06T16:00:00Z</time>
      </trkpt>
      <trkpt lat="47.84797" lon="-2.70046">
        <ele>99.7</ele>
        <time>2010-10-06T16:00:19Z</time>
      </trkpt>
      <trkpt lat="47.84837" lon="-2.70065">
        <ele>102</ele>
        <time>2010-10-06T16:00:24Z</time>
      </trkpt>
      <trkpt lat="47.84831" lon="-2.70127">
        <ele>100.9</ele>
        <time>2010-10-06T16:00:29Z</time>
      </trkpt>
      <trkpt lat="47.84834" lon="-2.70155">
        <ele>100.5</ele>
        <time>2010-10-06T16:00:31Z</time>
      </trkpt>
      <trkpt lat="47.84843" lon="-2.70184">
        <ele>101.5</ele>
        <time>2010-10-06T16:00:33Z</time>
      </trkpt>
      <trkpt lat="47.84864" lon="-2.70172">
        <ele>103</ele>
        <time>2010-10-06T16:00:36Z</time>
      </trkpt>
      <trkpt lat="47.84892" lon="-2.70151">
        <ele>104.5</ele>
        <time>2010-10-06T16:00:39Z</time>
      </trkpt>
      <trkpt lat="47.84906" lon="-2.70137">
        <ele>105.3</ele>
        <time>2010-10-06T16:00:41Z</time>
      </trkpt>
      <trkpt lat="47.8493" lon="-2.70142">
        <ele>106.1</ele>
        <time>2010-10-06T16:00:44Z</time>
      </trkpt>
      <trkpt lat="47.84951" lon="-2.70154">
        <ele>106</ele>
        <time>2010-10-06T16:00:46Z</time>
      </trkpt>
      <trkpt lat="47.84983" lon="-2.70176">
        <ele>104.8</ele>
        <time>2010-10-06T16:00:50Z</time>
      </trkpt>
      <trkpt lat="47.85087" lon="-2.70233">
        <ele>94</ele>
        <time>2010-10-06T16:01:03Z</time>
      </trkpt>
      <trkpt lat="47.85194" lon="-2.70125">
        <ele>89.1</ele>
        <time>2010-10-06T16:01:17Z</time>
      </trkpt>
      <trkpt lat="47.85209" lon="-2.70113">
        <ele>88.7</ele>
        <time>2010-10-06T16:01:19Z</time>
      </trkpt>
      <trkpt lat="47.85225" lon="-2.70095">
        <ele>88.7</ele>
        <time>2010-10-06T16:01:21Z</time>
      </trkpt>
      <trkpt lat="47.85241" lon="-2.70067">
        <ele>89</ele>
        <time>2010-10-06T16:01:24Z</time>
      </trkpt>
      <trkpt lat="47.85264" lon="-2.70014">
        <ele>90</ele>
        <time>2010-10-06T16:01:28Z</time>
      </trkpt>
      <trkpt lat="47.85396" lon="-2.69717">
        <ele>93.2</ele>
        <time>2010-10-06T16:01:55Z</time>
      </trkpt>
      <trkpt lat="47.85428" lon="-2.69749">
        <ele>90.5</ele>
        <time>2010-10-06T16:01:59Z</time>
      </trkpt>
      <trkpt lat="47.8546" lon="-2.69649">
        <ele>90.7</ele>
        <time>2010-10-06T16:02:07Z</time>
      </trkpt>
      <trkpt lat="47.85464" lon="-2.69634">
        <ele>90.7</ele>
        <time>2010-10-06T16:02:09Z</time>
      </trkpt>
      <trkpt lat="47.8547" lon="-2.69612">
        <ele>90.7</ele>
        <time>2010-10-06T16:02:10Z</time>
      </trkpt>
      <trkpt lat="47.85474" lon="-2.69592">
        <ele>90.7</ele>
        <time>2010-10-06T16:02:12Z</time>
      </trkpt>
      <trkpt lat="47.85479" lon="-2.69571">
        <ele>90.7</ele>
        <time>2010-10-06T16:02:14Z</time>
      </trkpt>
      <trkpt lat="47.85483" lon="-2.69542">
        <ele>91.2</ele>
        <time>2010-10-06T16:02:16Z</time>
      </trkpt>
      <trkpt lat="47.85488" lon="-2.69511">
        <ele>91.6</ele>
        <time>2010-10-06T16:02:18Z</time>
      </trkpt>
      <trkpt lat="47.8549" lon="-2.69489">
        <ele>92.2</ele>
        <time>2010-10-06T16:02:20Z</time>
      </trkpt>
      <trkpt lat="47.85494" lon="-2.69455">
        <ele>93.2</ele>
        <time>2010-10-06T16:02:22Z</time>
      </trkpt>
      <trkpt lat="47.85497" lon="-2.69437">
        <ele>93.5</ele>
        <time>2010-10-06T16:02:24Z</time>
      </trkpt>
      <trkpt lat="47.85498" lon="-2.69413">
        <ele>94</ele>
        <time>2010-10-06T16:02:26Z</time>
      </trkpt>
      <trkpt lat="47.85526" lon="-2.69438">
        <ele>90.7</ele>
        <time>2010-10-06T16:02:29Z</time>
      </trkpt>
      <trkpt lat="47.85541" lon="-2.69406">
        <ele>90.5</ele>
        <time>2010-10-06T16:02:32Z</time>
      </trkpt>
      <trkpt lat="47.8555" lon="-2.69368">
        <ele>90.9</ele>
        <time>2010-10-06T16:02:35Z</time>
      </trkpt>
      <trkpt lat="47.85558" lon="-2.69347">
        <ele>90.6</ele>
        <time>2010-10-06T16:02:37Z</time>
      </trkpt>
      <trkpt lat="47.85567" lon="-2.69305">
        <ele>90.7</ele>
        <time>2010-10-06T16:02:40Z</time>
      </trkpt>
      <trkpt lat="47.85575" lon="-2.69267">
        <ele>90.6</ele>
        <time>2010-10-06T16:02:43Z</time>
      </trkpt>
      <trkpt lat="47.85583" lon="-2.69229">
        <ele>90.4</ele>
        <time>2010-10-06T16:02:46Z</time>
      </trkpt>
      <trkpt lat="47.8559" lon="-2.69194">
        <ele>90.1</ele>
        <time>2010-10-06T16:02:49Z</time>
      </trkpt>
      <trkpt lat="47.85597" lon="-2.69159">
        <ele>90</ele>
        <time>2010-10-06T16:02:52Z</time>
      </trkpt>
      <trkpt lat="47.85599" lon="-2.69111">
        <ele>90</ele>
        <time>2010-10-06T16:02:55Z</time>
      </trkpt>
      <trkpt lat="47.85605" lon="-2.69075">
        <ele>90</ele>
        <time>2010-10-06T16:02:58Z</time>
      </trkpt>
      <trkpt lat="47.85607" lon="-2.69045">
        <ele>90</ele>
        <time>2010-10-06T16:03:00Z</time>
      </trkpt>
      <trkpt lat="47.85604" lon="-2.69024">
        <ele>90.1</ele>
        <time>2010-10-06T16:03:02Z</time>
      </trkpt>
      <trkpt lat="47.85616" lon="-2.69011">
        <ele>90</ele>
        <time>2010-10-06T16:03:04Z</time>
      </trkpt>
      <trkpt lat="47.85631" lon="-2.68997">
        <ele>91.4</ele>
        <time>2010-10-06T16:03:06Z</time>
      </trkpt>
      <trkpt lat="47.85648" lon="-2.68984">
        <ele>93.6</ele>
        <time>2010-10-06T16:03:08Z</time>
      </trkpt>
      <trkpt lat="47.85667" lon="-2.68972">
        <ele>95.7</ele>
        <time>2010-10-06T16:03:10Z</time>
      </trkpt>
      <trkpt lat="47.85685" lon="-2.68939">
        <ele>97.3</ele>
        <time>2010-10-06T16:03:13Z</time>
      </trkpt>
      <trkpt lat="47.85703" lon="-2.68892">
        <ele>98.1</ele>
        <time>2010-10-06T16:03:17Z</time>
      </trkpt>
      <trkpt lat="47.85715" lon="-2.68859">
        <ele>97.9</ele>
        <time>2010-10-06T16:03:20Z</time>
      </trkpt>
      <trkpt lat="47.85732" lon="-2.68827">
        <ele>98.1</ele>
        <time>2010-10-06T16:03:23Z</time>
      </trkpt>
      <trkpt lat="47.85744" lon="-2.68793">
        <ele>98</ele>
        <time>2010-10-06T16:03:26Z</time>
      </trkpt>
      <trkpt lat="47.85759" lon="-2.68769">
        <ele>99</ele>
        <time>2010-10-06T16:03:28Z</time>
      </trkpt>
      <trkpt lat="47.85748" lon="-2.68739">
        <ele>97.2</ele>
        <time>2010-10-06T16:03:31Z</time>
      </trkpt>
      <trkpt lat="47.85757" lon="-2.68725">
        <ele>97.8</ele>
        <time>2010-10-06T16:03:32Z</time>
      </trkpt>
      <trkpt lat="47.85762" lon="-2.68692">
        <ele>96.9</ele>
        <time>2010-10-06T16:03:35Z</time>
      </trkpt>
      <trkpt lat="47.85779" lon="-2.68663">
        <ele>97.6</ele>
        <time>2010-10-06T16:03:38Z</time>
      </trkpt>
      <trkpt lat="47.85795" lon="-2.68632">
        <ele>98.1</ele>
        <time>2010-10-06T16:03:41Z</time>
      </trkpt>
      <trkpt lat="47.85813" lon="-2.686">
        <ele>97.7</ele>
        <time>2010-10-06T16:03:44Z</time>
      </trkpt>
      <trkpt lat="47.85826" lon="-2.68581">
        <ele>98</ele>
        <time>2010-10-06T16:03:46Z</time>
      </trkpt>
      <trkpt lat="47.85843" lon="-2.68563">
        <ele>98.9</ele>
        <time>2010-10-06T16:03:48Z</time>
      </trkpt>
      <trkpt lat="47.8586" lon="-2.68546">
        <ele>100</ele>
        <time>2010-10-06T16:03:51Z</time>
      </trkpt>
      <trkpt lat="47.85875" lon="-2.68527">
        <ele>100.4</ele>
        <time>2010-10-06T16:03:53Z</time>
      </trkpt>
      <trkpt lat="47.8589" lon="-2.68519">
        <ele>101.7</ele>
        <time>2010-10-06T16:03:54Z</time>
      </trkpt>
      <trkpt lat="47.85916" lon="-2.68515">
        <ele>103.9</ele>
        <time>2010-10-06T16:03:57Z</time>
      </trkpt>
      <trkpt lat="47.85898" lon="-2.6845">
        <ele>99.7</ele>
        <time>2010-10-06T16:04:03Z</time>
      </trkpt>
      <trkpt lat="47.85883" lon="-2.68433">
        <ele>97.3</ele>
        <time>2010-10-06T16:04:05Z</time>
      </trkpt>
      <trkpt lat="47.85869" lon="-2.68407">
        <ele>95</ele>
        <time>2010-10-06T16:04:07Z</time>
      </trkpt>
      <trkpt lat="47.85844" lon="-2.68382">
        <ele>95.2</ele>
        <time>2010-10-06T16:04:10Z</time>
      </trkpt>
      <trkpt lat="47.85785" lon="-2.68322">
        <ele>98.2</ele>
        <time>2010-10-06T16:04:18Z</time>
      </trkpt>
      <trkpt lat="47.85737" lon="-2.68277">
        <ele>103.8</ele>
        <time>2010-10-06T16:04:25Z</time>
      </trkpt>
      <trkpt lat="47.85673" lon="-2.68405">
        <ele>103.9</ele>
        <time>2010-10-06T16:04:37Z</time>
      </trkpt>
      <trkpt lat="47.8536" lon="-2.68154">
        <ele>124</ele>
        <time>2010-10-06T16:05:16Z</time>
      </trkpt>
      <trkpt lat="47.85337" lon="-2.68218">
        <ele>124</ele>
        <time>2010-10-06T16:05:21Z</time>
      </trkpt>
      <trkpt lat="47.85159" lon="-2.68116">
        <ele>125.4</ele>
        <time>2010-10-06T16:05:43Z</time>
      </trkpt>
      <trkpt lat="47.84891" lon="-2.67997">
        <ele>144.7</ele>
        <time>2010-10-06T16:06:14Z</time>
      </trkpt>
      <trkpt lat="47.8455" lon="-2.67871">
        <ele>156</ele>
        <time>2010-10-06T16:06:53Z</time>
      </trkpt>
      <trkpt lat="47.8452" lon="-2.68037">
        <ele>154.2</ele>
        <time>2010-10-06T16:07:06Z</time>
      </trkpt>
      <trkpt lat="47.84502" lon="-2.68078">
        <ele>152.6</ele>
        <time>2010-10-06T16:07:09Z</time>
      </trkpt>
      <trkpt lat="47.84492" lon="-2.68097">
        <ele>151.5</ele>
        <time>2010-10-06T16:07:11Z</time>
      </trkpt>
      <trkpt lat="47.84478" lon="-2.68124">
        <ele>150.1</ele>
        <time>2010-10-06T16:07:14Z</time>
      </trkpt>
      <trkpt lat="47.84462" lon="-2.68152">
        <ele>147.7</ele>
        <time>2010-10-06T16:07:16Z</time>
      </trkpt>
      <trkpt lat="47.84446" lon="-2.68181">
        <ele>144.9</ele>
        <time>2010-10-06T16:07:19Z</time>
      </trkpt>
      <trkpt lat="47.84435" lon="-2.68231">
        <ele>141.7</ele>
        <time>2010-10-06T16:07:23Z</time>
      </trkpt>
      <trkpt lat="47.84399" lon="-2.68281">
        <ele>139.5</ele>
        <time>2010-10-06T16:07:29Z</time>
      </trkpt>
      <trkpt lat="47.84346" lon="-2.68372">
        <ele>140.2</ele>
        <time>2010-10-06T16:07:38Z</time>
      </trkpt>
      <trkpt lat="47.84302" lon="-2.6828">
        <ele>141.8</ele>
        <time>2010-10-06T16:07:46Z</time>
      </trkpt>
      <trkpt lat="47.83977" lon="-2.68098">
        <ele>147.2</ele>
        <time>2010-10-06T16:08:25Z</time>
      </trkpt>
      <trkpt lat="47.83957" lon="-2.68082">
        <ele>146.9</ele>
        <time>2010-10-06T16:08:27Z</time>
      </trkpt>
      <trkpt lat="47.83944" lon="-2.68079">
        <ele>146.8</ele>
        <time>2010-10-06T16:08:29Z</time>
      </trkpt>
      <trkpt lat="47.8394" lon="-2.68066">
        <ele>146.7</ele>
        <time>2010-10-06T16:08:30Z</time>
      </trkpt>
      <trkpt lat="47.83933" lon="-2.68058">
        <ele>146.6</ele>
        <time>2010-10-06T16:08:31Z</time>
      </trkpt>
      <trkpt lat="47.83706" lon="-2.68044">
        <ele>155.2</ele>
        <time>2010-10-06T16:08:56Z</time>
      </trkpt>
      <trkpt lat="47.83696" lon="-2.67996">
        <ele>154.6</ele>
        <time>2010-10-06T16:09:00Z</time>
      </trkpt>
      <trkpt lat="47.83607" lon="-2.68002">
        <ele>149.8</ele>
        <time>2010-10-06T16:09:10Z</time>
      </trkpt>
      <trkpt lat="47.83607" lon="-2.68091">
        <ele>151.6</ele>
        <time>2010-10-06T16:09:16Z</time>
      </trkpt>
      <trkpt lat="47.83609" lon="-2.68274">
        <ele>154.4</ele>
        <time>2010-10-06T16:09:30Z</time>
      </trkpt>
      <trkpt lat="47.83622" lon="-2.68504">
        <ele>152.3</ele>
        <time>2010-10-06T16:09:47Z</time>
      </trkpt>
      <trkpt lat="47.83639" lon="-2.68639">
        <ele>149.5</ele>
        <time>2010-10-06T16:09:57Z</time>
      </trkpt>
      <trkpt lat="47.83644" lon="-2.68683">
        <ele>147.5</ele>
        <time>2010-10-06T16:10:01Z</time>
      </trkpt>
      <trkpt lat="47.83646" lon="-2.68754">
        <ele>143.1</ele>
        <time>2010-10-06T16:10:06Z</time>
      </trkpt>
      <trkpt lat="47.83655" lon="-2.68789">
        <ele>141.4</ele>
        <time>2010-10-06T16:10:09Z</time>
      </trkpt>
      <trkpt lat="47.83672" lon="-2.6883">
        <ele>139.9</ele>
        <time>2010-10-06T16:10:12Z</time>
      </trkpt>
      <trkpt lat="47.83695" lon="-2.68883">
        <ele>138.3</ele>
        <time>2010-10-06T16:10:17Z</time>
      </trkpt>
      <trkpt lat="47.83703" lon="-2.6895">
        <ele>134.6</ele>
        <time>2010-10-06T16:10:22Z</time>
      </trkpt>
      <trkpt lat="47.83666" lon="-2.69017">
        <ele>127.4</ele>
        <time>2010-10-06T16:10:29Z</time>
      </trkpt>
      <trkpt lat="47.83644" lon="-2.69003">
        <ele>125.6</ele>
        <time>2010-10-06T16:10:31Z</time>
      </trkpt>
      <trkpt lat="47.83626" lon="-2.69001">
        <ele>124.2</ele>
        <time>2010-10-06T16:10:33Z</time>
      </trkpt>
      <trkpt lat="47.83606" lon="-2.68965">
        <ele>124</ele>
        <time>2010-10-06T16:10:37Z</time>
      </trkpt>
      <trkpt lat="47.83595" lon="-2.68988">
        <ele>122.3</ele>
        <time>2010-10-06T16:10:39Z</time>
      </trkpt>
      <trkpt lat="47.83588" lon="-2.69041">
        <ele>120.4</ele>
        <time>2010-10-06T16:10:43Z</time>
      </trkpt>
      <trkpt lat="47.83586" lon="-2.69086">
        <ele>119.5</ele>
        <time>2010-10-06T16:10:46Z</time>
      </trkpt>
      <trkpt lat="47.83584" lon="-2.69147">
        <ele>119.3</ele>
        <time>2010-10-06T16:10:51Z</time>
      </trkpt>
      <trkpt lat="47.83562" lon="-2.6916">
        <ele>119.6</ele>
        <time>2010-10-06T16:10:54Z</time>
      </trkpt>
      <trkpt lat="47.83565" lon="-2.69192">
        <ele>120.9</ele>
        <time>2010-10-06T16:10:56Z</time>
      </trkpt>
      <trkpt lat="47.83556" lon="-2.69221">
        <ele>123.7</ele>
        <time>2010-10-06T16:10:58Z</time>
      </trkpt>
      <trkpt lat="47.83554" lon="-2.69268">
        <ele>127.2</ele>
        <time>2010-10-06T16:11:02Z</time>
      </trkpt>
      <trkpt lat="47.83553" lon="-2.69305">
        <ele>128.5</ele>
        <time>2010-10-06T16:11:05Z</time>
      </trkpt>
      <trkpt lat="47.83549" lon="-2.69367">
        <ele>129.7</ele>
        <time>2010-10-06T16:11:09Z</time>
      </trkpt>
      <trkpt lat="47.83539" lon="-2.69401">
        <ele>129.8</ele>
        <time>2010-10-06T16:11:12Z</time>
      </trkpt>
      <trkpt lat="47.83536" lon="-2.69425">
        <ele>129.5</ele>
        <time>2010-10-06T16:11:14Z</time>
      </trkpt>
      <trkpt lat="47.83546" lon="-2.69466">
        <ele>128.7</ele>
        <time>2010-10-06T16:11:17Z</time>
      </trkpt>
      <trkpt lat="47.83557" lon="-2.69481">
        <ele>128.4</ele>
        <time>2010-10-06T16:11:19Z</time>
      </trkpt>
      <trkpt lat="47.83569" lon="-2.69493">
        <ele>128.5</ele>
        <time>2010-10-06T16:11:20Z</time>
      </trkpt>
      <trkpt lat="47.83566" lon="-2.69524">
        <ele>127.9</ele>
        <time>2010-10-06T16:11:23Z</time>
      </trkpt>
      <trkpt lat="47.83564" lon="-2.69564">
        <ele>127.2</ele>
        <time>2010-10-06T16:11:26Z</time>
      </trkpt>
      <trkpt lat="47.83568" lon="-2.69581">
        <ele>127.2</ele>
        <time>2010-10-06T16:11:27Z</time>
      </trkpt>
      <trkpt lat="47.83583" lon="-2.69602">
        <ele>127.4</ele>
        <time>2010-10-06T16:11:29Z</time>
      </trkpt>
      <trkpt lat="47.83598" lon="-2.69616">
        <ele>128.1</ele>
        <time>2010-10-06T16:11:31Z</time>
      </trkpt>
      <trkpt lat="47.83605" lon="-2.69627">
        <ele>128.7</ele>
        <time>2010-10-06T16:11:33Z</time>
      </trkpt>
      <trkpt lat="47.8361" lon="-2.69662">
        <ele>130</ele>
        <time>2010-10-06T16:11:35Z</time>
      </trkpt>
      <trkpt lat="47.83613" lon="-2.69687">
        <ele>130.4</ele>
        <time>2010-10-06T16:11:37Z</time>
      </trkpt>
      <trkpt lat="47.83609" lon="-2.69732">
        <ele>131.1</ele>
        <time>2010-10-06T16:11:40Z</time>
      </trkpt>
      <trkpt lat="47.83623" lon="-2.69757">
        <ele>132.3</ele>
        <time>2010-10-06T16:11:43Z</time>
      </trkpt>
      <trkpt lat="47.83641" lon="-2.69798">
        <ele>134.6</ele>
        <time>2010-10-06T16:11:46Z</time>
      </trkpt>
      <trkpt lat="47.83656" lon="-2.69818">
        <ele>134.3</ele>
        <time>2010-10-06T16:11:49Z</time>
      </trkpt>
      <trkpt lat="47.83674" lon="-2.69844">
        <ele>133.1</ele>
        <time>2010-10-06T16:11:51Z</time>
      </trkpt>
      <trkpt lat="47.83686" lon="-2.69877">
        <ele>133.4</ele>
        <time>2010-10-06T16:11:54Z</time>
      </trkpt>
      <trkpt lat="47.83696" lon="-2.6991">
        <ele>133.4</ele>
        <time>2010-10-06T16:11:57Z</time>
      </trkpt>
      <trkpt lat="47.83699" lon="-2.69932">
        <ele>133.5</ele>
        <time>2010-10-06T16:11:59Z</time>
      </trkpt>
      <trkpt lat="47.83682" lon="-2.69989">
        <ele>137.5</ele>
        <time>2010-10-06T16:12:03Z</time>
      </trkpt>
      <trkpt lat="47.83676" lon="-2.70022">
        <ele>138.5</ele>
        <time>2010-10-06T16:12:06Z</time>
      </trkpt>
      <trkpt lat="47.83657" lon="-2.70048">
        <ele>138.4</ele>
        <time>2010-10-06T16:12:09Z</time>
      </trkpt>
      <trkpt lat="47.83639" lon="-2.70059">
        <ele>137.2</ele>
        <time>2010-10-06T16:12:11Z</time>
      </trkpt>
      <trkpt lat="47.83641" lon="-2.701">
        <ele>137.2</ele>
        <time>2010-10-06T16:12:14Z</time>
      </trkpt>
      <trkpt lat="47.83657" lon="-2.70186">
        <ele>139.1</ele>
        <time>2010-10-06T16:12:21Z</time>
      </trkpt>
      <trkpt lat="47.8367" lon="-2.70262">
        <ele>141.6</ele>
        <time>2010-10-06T16:12:27Z</time>
      </trkpt>
      <trkpt lat="47.83696" lon="-2.70364">
        <ele>147.1</ele>
        <time>2010-10-06T16:12:35Z</time>
      </trkpt>
      <trkpt lat="47.83709" lon="-2.70476">
        <ele>148.9</ele>
        <time>2010-10-06T16:12:43Z</time>
      </trkpt>
      <trkpt lat="47.83735" lon="-2.70605">
        <ele>143.7</ele>
        <time>2010-10-06T16:12:53Z</time>
      </trkpt>
      <trkpt lat="47.83755" lon="-2.70679">
        <ele>146.9</ele>
        <time>2010-10-06T16:12:59Z</time>
      </trkpt>
      <trkpt lat="47.83769" lon="-2.7073">
        <ele>148</ele>
        <time>2010-10-06T16:13:03Z</time>
      </trkpt>
      <trkpt lat="47.83785" lon="-2.7077">
        <ele>150</ele>
        <time>2010-10-06T16:13:07Z</time>
      </trkpt>
      <trkpt lat="47.83787" lon="-2.70739">
        <ele>149.4</ele>
        <time>2010-10-06T16:13:09Z</time>
      </trkpt>
      <trkpt lat="47.83798" lon="-2.709">
        <ele>144</ele>
        <time>2010-10-06T16:13:11Z</time>
      </trkpt>
      <trkpt lat="47.83784" lon="-2.71074">
        <ele>145.2</ele>
        <time>2010-10-06T16:13:13Z</time>
      </trkpt>
      <trkpt lat="47.83841" lon="-2.71236">
        <ele>139.5</ele>
        <time>2010-10-06T16:13:15Z</time>
      </trkpt>
      <trkpt lat="47.83862" lon="-2.71347">
        <ele>133.3</ele>
        <time>2010-10-06T16:13:17Z</time>
      </trkpt>
      <trkpt lat="47.83896" lon="-2.71431">
        <ele>127</ele>
        <time>2010-10-06T16:13:18Z</time>
      </trkpt>
      <trkpt lat="47.83915" lon="-2.71603">
        <ele>121.2</ele>
        <time>2010-10-06T16:13:20Z</time>
      </trkpt>
      <trkpt lat="47.83961" lon="-2.71717">
        <ele>113</ele>
        <time>2010-10-06T16:13:22Z</time>
      </trkpt>
      <trkpt lat="47.83992" lon="-2.71649">
        <ele>112.8</ele>
        <time>2010-10-06T16:13:25Z</time>
      </trkpt>
      <trkpt lat="47.84023" lon="-2.71671">
        <ele>113.3</ele>
        <time>2010-10-06T16:13:31Z</time>
      </trkpt>
      <trkpt lat="47.84024" lon="-2.71813">
        <ele>109</ele>
        <time>2010-10-06T16:13:43Z</time>
      </trkpt>
      <trkpt lat="47.84096" lon="-2.71915">
        <ele>112.9</ele>
        <time>2010-10-06T16:13:59Z</time>
      </trkpt>
      <trkpt lat="47.84168" lon="-2.71955">
        <ele>118</ele>
        <time>2010-10-06T16:14:02Z</time>
      </trkpt>
      <trkpt lat="47.8424" lon="-2.71959">
        <ele>118.5</ele>
        <time>2010-10-06T16:14:08Z</time>
      </trkpt>
      <trkpt lat="47.84235" lon="-2.71767">
        <ele>117.3</ele>
        <time>2010-10-06T16:14:42Z</time>
      </trkpt>
      <trkpt lat="47.8421" lon="-2.71521">
        <ele>119</ele>
        <time>2010-10-06T16:15:07Z</time>
      </trkpt>
      <trkpt lat="47.8421" lon="-2.71285">
        <ele>117.9</ele>
        <time>2010-10-06T16:15:15Z</time>
      </trkpt>
      <trkpt lat="47.84111" lon="-2.71078">
        <ele>122</ele>
        <time>2010-10-06T16:15:15Z</time>
      </trkpt>
      <trkpt lat="47.84028" lon="-2.70873">
        <ele>125.1</ele>
        <time>2010-10-06T16:15:15Z</time>
      </trkpt>
      <trkpt lat="47.84112" lon="-2.70891">
        <ele>121.6</ele>
        <time>2010-10-06T16:15:15Z</time>
      </trkpt>
      <trkpt lat="47.84129" lon="-2.7076">
        <ele>119.9</ele>
        <time>2010-10-06T16:15:15Z</time>
      </trkpt>
      <trkpt lat="47.84337" lon="-2.70808">
        <ele>120</ele>
        <time>2010-10-06T16:15:15Z</time>
      </trkpt>
      <trkpt lat="47.84343" lon="-2.70769">
        <ele>118.6</ele>
        <time>2010-10-06T16:15:15Z</time>
      </trkpt>
      <trkpt lat="47.84569" lon="-2.7083">
        <ele>114.6</ele>
        <time>2010-10-06T16:15:15Z</time>
      </trkpt>
      <trkpt lat="47.8463" lon="-2.70832">
        <ele>112.9</ele>
        <time>2010-10-06T16:15:15Z</time>
      </trkpt>
    </trkseg>
  </trk>
</gpx>